Aberdeen, ID

10:07 AM MDT on September 21, 2014 (GMT -0600)
Pocatello Regional | Change Station
CLOSE
Current Station
Airport
Location: Pocatello,
Elevation: 4478 ft
Nearby Weather Stations

Elev 4478 ft 42.92 °N, 112.57 °W | Updated 14 minutes ago

Partly Cloudy
Partly Cloudy
63 °F
Feels Like 63 °F
N
5
Wind Variable Wind from NNE

Today
High -- | Low -- °F
--% Chance of Precip.
Yesterday
High -- | Low -- °F
Precip. -- in
7:17 AM 7:30 PM
Waning Crescent, 6% visible
Pressure 30.06 in
Visibility 10.0 miles
Clouds Clear
Dew Point 47 °F
Humidity 56%
Rainfall 0.00 in
Snow Depth 0 in , 0 in , 0 in
UV 3 out of 12
Pollen 6.70 out of 12
PM2.5 Good
Flu Activity Not available.
METAR KPIH 211553Z 02004KT 10SM CLR 17/08 A3016 RMK AO2 SLP177 T01720083

More Conditions Fewer Conditions

Pressure 30.06 in
Visibility 10.0 miles
Clouds Clear
Dew Point 47 °F
Humidity 56%
Rainfall 0.00 in
Snow Depth 0 in , 0 in , 0 in
UV 3 out of 12
Pollen 6.70 out of 12
PM2.5 Good
Flu Activity Not available.
METAR KPIH 211553Z 02004KT 10SM CLR 17/08 A3016 RMK AO2 SLP177 T01720083

More Conditions Fewer Conditions

10-Day Weather Forecast

Almanac

Astronomy

Sep. 21, 2014 Rise Set
Actual Time 7:17 AM MDT 7:30 PM MDT
Civil Twilight 6:49 AM MDT 7:58 PM MDT
Nautical Twilight 6:15 AM MDT 8:31 PM MDT
Astronomical Twilight 5:41 AM MDT 9:05 PM MDT
Moon 4:51 AM MDT 6:10 PM MDT
Length of Visible Light 13h 09m
Length of Day
12h 12m
Tomorrow will be 2m 54s shorter.
Waning Crescent, 6% of the Moon is Illuminated
Today
Waning Crescent
Sep 24
New
Oct 1
First Quarter
Oct 8
Full
Oct 15
Last Quarter

Today's Extremes

State Highs State Lows

Community

WunderPhotos

Upload Photos

1,755,181 photos uploaded!

Nearby

Air Quality

  Air Quality AQ Index Pollutant
Yesterday Good
PM2.5
Current Good
PM2.5
Sunday Good
PM2.5
Monday Good
PM2.5

Snow Depth

Station Depth Elevation
Atlanta Summit 0 in 7580 ft
Moonshine 0 in 7440 ft
Bear Canyon 0 in 7900 ft
Island Park 0 in 6290 ft
Elk Butte 0 in 5690 ft

Earthquake Activity

City Distance Mag. Time & Date
No recent earthquake activity has been reported nearby.
Minimum magnitude displayed is 2.5.

Coastal Water Temperatures

Place Temperature
No Stations Reporting

Nearby Weather Stations